Time;durP1;ratioP1;P1;durP2;ratioP2;P2;SDS_P1;SDS_P2;PMS_P1;PMS_P2;Temp;Humidity;BMP_temperature;BMP_pressure;BME280_temperature;BME280_humidity;BME280_pressure;Samples;Min_cycle;Max_cycle;Signal;HPM_P1;HPM_P2
2022/07/15 00:00:31;;;;;;;8.17;2.33;;;11.80;99.90;;;;;;5064419;28;21849;-75
2022/07/15 00:02:57;;;;;;;5.63;2.37;;;11.80;99.90;;;;;;5083365;28;20116;-75
2022/07/15 00:05:22;;;;;;;7.70;2.30;;;11.80;99.90;;;;;;5065166;28;20905;-74
2022/07/15 00:07:48;;;;;;;4.63;1.80;;;11.80;99.90;;;;;;5061866;28;20449;-75
2022/07/15 00:10:16;;;;;;;5.20;1.90;;;11.80;99.90;;;;;;5083168;28;20048;-75
2022/07/15 00:12:42;;;;;;;9.27;2.80;;;11.80;99.90;;;;;;5058220;28;20082;-75
2022/07/15 00:15:09;;;;;;;6.20;2.60;;;11.80;99.90;;;;;;5082010;28;20926;-74
2022/07/15 00:17:35;;;;;;;10.43;2.40;;;11.80;99.90;;;;;;5096598;28;20040;-74
2022/07/15 00:20:00;;;;;;;6.37;2.37;;;11.80;99.90;;;;;;5060247;28;20419;-75
2022/07/15 00:22:26;;;;;;;9.47;2.60;;;11.70;99.90;;;;;;5069366;28;20560;-74
2022/07/15 00:24:52;;;;;;;11.23;2.70;;;11.70;99.90;;;;;;5076589;28;20060;-75
2022/07/15 00:27:19;;;;;;;10.13;2.63;;;11.80;99.90;;;;;;5070083;28;20121;-74
2022/07/15 00:29:45;;;;;;;9.80;2.80;;;11.80;99.90;;;;;;5048457;28;20053;-75
2022/07/15 00:32:11;;;;;;;10.10;3.03;;;11.90;99.90;;;;;;5064975;28;20101;-75
2022/07/15 00:34:37;;;;;;;8.90;2.90;;;12.00;99.90;;;;;;5069012;28;20046;-75
2022/07/15 00:37:03;;;;;;;10.67;2.90;;;12.10;99.90;;;;;;5067711;28;20089;-75
2022/07/15 00:39:28;;;;;;;10.57;2.90;;;12.20;99.90;;;;;;5070215;28;20039;-74
2022/07/15 00:41:54;;;;;;;7.80;2.70;;;12.30;99.90;;;;;;5069242;28;20112;-75
2022/07/15 00:44:21;;;;;;;8.70;3.10;;;12.30;99.90;;;;;;5068458;28;20072;-74
2022/07/15 00:46:48;;;;;;;8.03;2.80;;;12.40;99.90;;;;;;5066578;28;20124;-74
2022/07/15 00:49:13;;;;;;;9.70;2.67;;;12.50;99.90;;;;;;5051954;28;20510;-74
2022/07/15 00:51:42;;;;;;;12.27;2.90;;;12.50;99.90;;;;;;5069696;28;20049;-74
2022/07/15 00:54:09;;;;;;;8.37;2.70;;;12.50;99.90;;;;;;5042679;28;20044;-75
2022/07/15 00:56:37;;;;;;;6.57;2.47;;;12.50;99.90;;;;;;5085763;28;20036;-74
2022/07/15 00:59:05;;;;;;;12.07;3.30;;;12.50;99.90;;;;;;5058146;28;20036;-75
2022/07/15 01:01:32;;;;;;;9.57;3.30;;;12.50;99.90;;;;;;5067388;28;20044;-75
2022/07/15 01:03:59;;;;;;;13.50;3.37;;;12.50;99.90;;;;;;5065981;28;20079;-75
2022/07/15 01:06:26;;;;;;;9.47;3.10;;;12.50;99.90;;;;;;5068034;28;20438;-75
2022/07/15 01:08:52;;;;;;;12.80;3.40;;;12.50;99.90;;;;;;5100254;28;20051;-74
2022/07/15 01:11:18;;;;;;;8.03;2.90;;;12.50;99.90;;;;;;5067673;28;20040;-74
2022/07/15 01:13:44;;;;;;;7.83;2.90;;;12.50;99.90;;;;;;5084662;28;20093;-75
2022/07/15 01:16:10;;;;;;;12.40;2.57;;;12.60;99.90;;;;;;5069474;28;20139;-75
2022/07/15 01:18:38;;;;;;;13.90;2.73;;;12.60;99.90;;;;;;5062566;28;20410;-75
2022/07/15 01:21:05;;;;;;;10.53;3.20;;;12.60;99.90;;;;;;5058142;28;20040;-75
2022/07/15 01:23:31;;;;;;;12.90;2.57;;;12.60;99.90;;;;;;5068422;28;20099;-74
2022/07/15 01:26:04;;;;;;;11.60;3.03;;;12.60;99.90;;;;;;5066957;28;20040;-74
2022/07/15 01:28:31;;;;;;;11.10;3.13;;;12.70;99.90;;;;;;5069999;28;20044;-74
2022/07/15 01:30:57;;;;;;;9.87;2.67;;;12.70;99.90;;;;;;5084424;28;20407;-75
2022/07/15 01:33:26;;;;;;;7.13;2.47;;;12.70;99.90;;;;;;5063351;28;20058;-74
2022/07/15 01:35:53;;;;;;;14.70;2.90;;;12.80;99.90;;;;;;5066680;28;20410;-75
2022/07/15 01:38:21;;;;;;;8.97;2.63;;;12.80;99.90;;;;;;5076118;28;20108;-74
2022/07/15 01:40:50;;;;;;;11.83;2.90;;;12.80;99.90;;;;;;5066633;28;20040;-75
2022/07/15 01:43:16;;;;;;;7.70;2.53;;;12.90;99.90;;;;;;5085047;28;20096;-74
2022/07/15 01:45:43;;;;;;;8.70;2.80;;;12.90;99.90;;;;;;5068387;28;20113;-74
2022/07/15 01:49:21;;;;;;;8.13;2.87;;;12.90;99.90;;;;;;5059284;28;20490;-74
2022/07/15 01:51:12;;;;;;;6.97;2.33;;;12.90;99.90;;;;;;5082406;28;20040;-75
2022/07/15 01:53:39;;;;;;;13.27;3.00;;;13.00;99.90;;;;;;5059092;28;20438;-74
2022/07/15 01:56:06;;;;;;;7.90;2.73;;;13.00;99.90;;;;;;5068178;28;20456;-74
2022/07/15 01:58:33;;;;;;;7.57;2.53;;;13.00;99.90;;;;;;5068502;28;20308;-74
2022/07/15 02:00:59;;;;;;;8.43;2.63;;;13.00;99.90;;;;;;5062283;28;20058;-74
2022/07/15 02:03:26;;;;;;;7.50;2.30;;;13.00;99.90;;;;;;5065402;28;20062;-74
2022/07/15 02:05:52;;;;;;;10.23;2.63;;;13.00;99.90;;;;;;5058870;28;20496;-74
2022/07/15 02:08:18;;;;;;;7.90;2.33;;;12.90;99.90;;;;;;5067434;28;20040;-74
2022/07/15 02:10:45;;;;;;;9.10;3.13;;;12.90;99.90;;;;;;5084386;28;20059;-75
2022/07/15 02:13:16;;;;;;;8.37;2.63;;;12.90;99.90;;;;;;5059603;28;20048;-74
2022/07/15 02:15:47;;;;;;;10.20;2.50;;;12.90;99.90;;;;;;5089133;28;20118;-74
2022/07/15 02:18:13;;;;;;;10.57;3.10;;;12.90;99.90;;;;;;5068329;28;20457;-74
2022/07/15 02:20:39;;;;;;;9.33;2.40;;;12.80;99.90;;;;;;5042761;28;20151;-74
2022/07/15 02:23:05;;;;;;;7.07;2.63;;;12.80;99.90;;;;;;5081897;28;20133;-74
2022/07/15 02:25:33;;;;;;;7.87;2.60;;;12.80;99.90;;;;;;5049513;28;20803;-74
2022/07/15 02:28:03;;;;;;;8.23;2.70;;;12.80;99.90;;;;;;5046520;28;20040;-74
2022/07/15 02:30:32;;;;;;;11.40;2.73;;;12.70;99.90;;;;;;5057462;28;20050;-74
2022/07/15 02:32:58;;;;;;;9.13;2.50;;;12.70;99.90;;;;;;5064680;28;20492;-74
2022/07/15 02:35:24;;;;;;;4.87;2.33;;;12.70;99.90;;;;;;5080949;28;20059;-74
2022/07/15 02:37:51;;;;;;;12.87;3.03;;;12.60;99.90;;;;;;5056362;28;20047;-74
2022/07/15 02:40:18;;;;;;;10.90;2.67;;;12.60;99.90;;;;;;5065337;28;20515;-74
2022/07/15 02:42:47;;;;;;;8.17;2.43;;;12.50;99.90;;;;;;5067021;28;20175;-74
2022/07/15 02:45:15;;;;;;;9.33;2.97;;;12.50;99.90;;;;;;5058416;28;20422;-74
2022/07/15 02:47:41;;;;;;;9.30;2.30;;;12.40;99.90;;;;;;5067378;28;20086;-74
2022/07/15 02:50:08;;;;;;;5.67;1.70;;;12.40;99.90;;;;;;5066146;28;20125;-74
2022/07/15 02:52:35;;;;;;;5.97;2.17;;;12.40;99.90;;;;;;5043525;28;20036;-74
2022/07/15 02:55:01;;;;;;;4.33;1.60;;;12.30;99.90;;;;;;5058492;28;20040;-74
2022/07/15 02:57:28;;;;;;;9.80;2.90;;;12.20;99.90;;;;;;5066091;28;20157;-74
2022/07/15 02:59:53;;;;;;;10.93;2.47;;;12.10;99.90;;;;;;5061230;28;20048;-74
2022/07/15 03:02:21;;;;;;;7.40;2.50;;;12.10;99.90;;;;;;5065295;28;20058;-74
2022/07/15 03:04:47;;;;;;;5.20;1.97;;;12.00;99.90;;;;;;5065816;28;20071;-74
2022/07/15 03:07:14;;;;;;;7.30;2.07;;;12.00;99.90;;;;;;5066498;28;20450;-74
2022/07/15 03:09:40;;;;;;;6.13;2.10;;;12.00;99.90;;;;;;5040420;28;20056;-74
2022/07/15 03:12:06;;;;;;;9.83;2.60;;;12.00;99.90;;;;;;5049634;28;20139;-74
2022/07/15 03:14:32;;;;;;;11.03;2.40;;;11.90;99.90;;;;;;5066305;28;20039;-74
2022/07/15 03:16:58;;;;;;;8.60;2.70;;;11.90;99.90;;;;;;5066943;28;20388;-74
2022/07/15 03:19:26;;;;;;;7.80;2.57;;;11.80;99.90;;;;;;5063286;28;20046;-74
2022/07/15 03:21:52;;;;;;;7.60;2.40;;;11.80;99.90;;;;;;5049268;28;20066;-74
2022/07/15 03:24:20;;;;;;;4.70;1.40;;;11.80;99.90;;;;;;5065095;28;20040;-74
2022/07/15 03:26:46;;;;;;;8.37;2.60;;;11.70;99.90;;;;;;5058026;28;20085;-74
2022/07/15 03:29:15;;;;;;;9.43;2.30;;;11.70;99.90;;;;;;5055684;28;20048;-75
2022/07/15 03:31:41;;;;;;;6.53;2.10;;;11.70;99.90;;;;;;5049674;28;20036;-74
2022/07/15 03:34:07;;;;;;;7.27;2.67;;;11.70;99.90;;;;;;5062316;28;20051;-74
2022/07/15 03:36:35;;;;;;;10.23;2.40;;;11.60;99.90;;;;;;5064730;28;20040;-74
2022/07/15 03:39:00;;;;;;;10.73;2.50;;;11.60;99.90;;;;;;5064766;28;20045;-75
2022/07/15 03:41:26;;;;;;;13.33;2.83;;;11.60;99.90;;;;;;5066285;28;20074;-75
2022/07/15 03:43:53;;;;;;;10.77;2.60;;;11.50;99.90;;;;;;5053613;28;20048;-75
2022/07/15 03:46:19;;;;;;;14.63;3.30;;;11.50;99.90;;;;;;5058753;28;20036;-74
2022/07/15 03:48:49;;;;;;;11.43;2.87;;;11.50;99.90;;;;;;5066079;28;20974;-75
2022/07/15 03:51:15;;;;;;;14.37;3.77;;;11.50;99.90;;;;;;5065830;28;20070;-74
2022/07/15 03:53:42;;;;;;;16.50;2.87;;;11.50;99.90;;;;;;5097063;28;20066;-74
2022/07/15 03:56:09;;;;;;;11.40;2.67;;;11.50;99.90;;;;;;5067322;28;20036;-74
2022/07/15 03:58:34;;;;;;;14.77;3.33;;;11.50;99.90;;;;;;5070020;28;20113;-74
2022/07/15 04:01:00;;;;;;;9.93;2.67;;;11.60;99.90;;;;;;5069816;28;20109;-75
2022/07/15 04:03:27;;;;;;;7.97;2.53;;;11.60;99.90;;;;;;5062749;28;20055;-74
2022/07/15 04:05:52;;;;;;;11.07;3.23;;;11.60;99.90;;;;;;5047511;28;20151;-75
2022/07/15 04:08:18;;;;;;;10.67;2.83;;;11.60;99.90;;;;;;5061945;28;20178;-75
2022/07/15 04:10:47;;;;;;;13.23;3.30;;;11.50;99.90;;;;;;5076253;28;20109;-75
2022/07/15 04:13:13;;;;;;;13.97;2.70;;;11.60;99.90;;;;;;5061584;28;20048;-74
2022/07/15 04:15:38;;;;;;;13.50;2.63;;;11.60;99.90;;;;;;5070009;28;20101;-74
2022/07/15 04:18:04;;;;;;;11.80;4.20;;;11.60;99.90;;;;;;5062984;28;20039;-74
2022/07/15 04:20:30;;;;;;;9.97;2.93;;;11.60;99.90;;;;;;5069200;28;20059;-74
2022/07/15 04:22:58;;;;;;;12.20;3.10;;;11.70;99.90;;;;;;5068467;28;20040;-75
2022/07/15 04:25:26;;;;;;;8.70;2.50;;;11.70;99.90;;;;;;5063294;28;20066;-75
2022/07/15 04:27:53;;;;;;;8.07;2.80;;;11.70;99.90;;;;;;5061798;28;20053;-75
2022/07/15 04:30:26;;;;;;;12.38;3.10;;;11.70;99.90;;;;;;5061756;28;20048;-74
2022/07/15 04:32:51;;;;;;;14.27;3.50;;;11.70;99.90;;;;;;5050079;28;20129;-74
2022/07/15 04:35:19;;;;;;;11.27;3.07;;;11.80;99.90;;;;;;5068112;28;20683;-75
2022/07/15 04:37:51;;;;;;;9.70;2.60;;;11.80;99.90;;;;;;5065570;28;20043;-75
2022/07/15 04:40:17;;;;;;;11.70;3.00;;;11.80;99.90;;;;;;5068968;28;20044;-75
2022/07/15 04:42:43;;;;;;;7.30;2.40;;;11.80;99.90;;;;;;5068590;28;20592;-75
2022/07/15 04:45:13;;;;;;;9.53;2.70;;;11.80;99.90;;;;;;5067769;28;20787;-75
2022/07/15 04:47:39;;;;;;;14.43;3.57;;;11.80;99.90;;;;;;5069489;28;20044;-74
2022/07/15 04:52:53;;;;;;;11.03;3.40;;;11.80;99.90;;;;;;5068379;28;20028;-75
2022/07/15 04:55:19;;;;;;;7.83;2.63;;;11.80;99.90;;;;;;5068628;28;20039;-75
2022/07/15 04:57:47;;;;;;;10.87;2.77;;;11.80;99.90;;;;;;5069159;28;20043;-75
2022/07/15 05:00:15;;;;;;;14.27;3.07;;;11.90;99.90;;;;;;5067525;28;20044;-75
2022/07/15 05:02:40;;;;;;;9.70;2.60;;;11.90;99.90;;;;;;5069315;28;20054;-75
2022/07/15 05:05:07;;;;;;;12.77;3.00;;;12.00;99.90;;;;;;5068595;28;20123;-75
2022/07/15 05:07:33;;;;;;;8.70;3.17;;;12.00;99.90;;;;;;5066724;28;20036;-75
2022/07/15 05:09:59;;;;;;;13.07;3.23;;;12.10;99.90;;;;;;5069398;28;20252;-75
2022/07/15 05:12:25;;;;;;;10.80;3.40;;;12.20;99.90;;;;;;5068281;28;20130;-74
2022/07/15 05:14:56;;;;;;;10.63;3.00;;;12.30;99.90;;;;;;5041731;28;20511;-75
2022/07/15 05:17:24;;;;;;;10.83;3.20;;;12.40;99.90;;;;;;5069131;28;20063;-75
2022/07/15 05:19:52;;;;;;;11.97;2.73;;;12.50;99.90;;;;;;5068027;28;20122;-75
2022/07/15 05:22:21;;;;;;;12.97;3.30;;;12.60;99.90;;;;;;5077061;28;20044;-75
2022/07/15 05:24:47;;;;;;;9.97;2.83;;;12.70;99.90;;;;;;5068464;28;20117;-75
2022/07/15 05:27:14;;;;;;;11.27;3.40;;;12.80;99.90;;;;;;5075987;28;20036;-75
2022/07/15 05:29:44;;;;;;;10.70;2.90;;;12.90;99.90;;;;;;5060801;28;20032;-75
2022/07/15 05:32:11;;;;;;;7.97;2.37;;;13.00;99.90;;;;;;5068221;28;20555;-75
2022/07/15 05:34:38;;;;;;;9.07;2.13;;;13.10;99.90;;;;;;5068404;28;20040;-76
2022/07/15 05:37:07;;;;;;;7.07;2.00;;;13.10;99.90;;;;;;5046772;28;20131;-75
2022/07/15 05:39:34;;;;;;;7.90;1.97;;;13.20;99.90;;;;;;5064856;28;20044;-75
2022/07/15 05:42:00;;;;;;;8.60;2.07;;;13.30;99.90;;;;;;5066217;28;20484;-76
2022/07/15 05:44:28;;;;;;;8.93;1.90;;;13.30;99.90;;;;;;5070613;28;20036;-75
2022/07/15 05:46:54;;;;;;;7.23;1.60;;;13.40;99.90;;;;;;5063138;28;20450;-77
2022/07/15 05:49:22;;;;;;;8.07;1.33;;;13.40;99.90;;;;;;5083710;28;20240;-75
2022/07/15 05:51:51;;;;;;;5.37;1.30;;;13.50;99.90;;;;;;5068077;28;20048;-76
2022/07/15 05:54:17;;;;;;;6.97;1.20;;;13.50;99.90;;;;;;5058885;28;20427;-76
2022/07/15 05:56:44;;;;;;;9.10;1.73;;;13.60;99.90;;;;;;5065760;28;20044;-76
2022/07/15 05:59:14;;;;;;;3.97;0.90;;;13.70;99.90;;;;;;5064559;28;20082;-75
2022/07/15 06:01:40;;;;;;;5.17;1.40;;;13.80;99.90;;;;;;5073459;28;20459;-75
2022/07/15 06:04:06;;;;;;;5.90;1.07;;;13.90;99.90;;;;;;5074010;28;20032;-75
2022/07/15 06:06:34;;;;;;;4.50;0.97;;;14.00;99.90;;;;;;5065400;28;20472;-77
2022/07/15 06:09:02;;;;;;;7.47;1.03;;;14.10;99.90;;;;;;5071281;28;20044;-76
2022/07/15 06:11:28;;;;;;;5.30;1.00;;;14.30;99.90;;;;;;5069568;28;20411;-76
2022/07/15 06:13:54;;;;;;;4.50;1.00;;;14.60;99.90;;;;;;5063905;28;20082;-77
2022/07/15 06:16:20;;;;;;;5.17;1.00;;;14.70;99.90;;;;;;5053690;28;20442;-75
2022/07/15 06:18:46;;;;;;;4.47;1.20;;;14.80;99.90;;;;;;5063914;28;20059;-76
2022/07/15 06:21:13;;;;;;;4.93;1.33;;;14.80;99.90;;;;;;5087291;28;20050;-75
2022/07/15 06:23:38;;;;;;;5.63;1.13;;;14.80;99.90;;;;;;5064343;28;20048;-75
2022/07/15 06:26:06;;;;;;;6.83;1.20;;;14.80;99.90;;;;;;5044385;28;20082;-75
2022/07/15 06:28:32;;;;;;;8.27;1.60;;;14.80;99.90;;;;;;5046690;28;20399;-76
2022/07/15 06:30:57;;;;;;;7.40;1.10;;;14.70;99.90;;;;;;5075529;28;20073;-74
2022/07/15 06:33:24;;;;;;;5.60;1.03;;;14.70;99.90;;;;;;5082465;28;20136;-74
2022/07/15 06:35:49;;;;;;;6.47;1.20;;;14.70;99.90;;;;;;5064424;28;20032;-74
2022/07/15 06:38:15;;;;;;;6.73;1.40;;;14.60;99.90;;;;;;5077430;28;20427;-74
2022/07/15 06:40:42;;;;;;;5.57;1.10;;;14.60;99.90;;;;;;5049245;28;20044;-74
2022/07/15 06:43:10;;;;;;;6.90;1.00;;;14.60;99.90;;;;;;5071612;28;20511;-75
2022/07/15 06:46:08;;;;;;;6.87;1.00;;;14.60;99.90;;;;;;5069187;28;20097;-74
2022/07/15 06:48:35;;;;;;;9.33;1.63;;;14.70;99.90;;;;;;5070090;28;20044;-75
2022/07/15 06:51:00;;;;;;;3.27;0.90;;;14.70;99.90;;;;;;5081816;28;20047;-75
2022/07/15 06:53:26;;;;;;;7.90;1.30;;;14.80;99.90;;;;;;5059885;28;20149;-75
2022/07/15 06:55:52;;;;;;;8.90;1.23;;;14.80;99.90;;;;;;5065030;28;20036;-75
2022/07/15 06:58:19;;;;;;;4.97;1.30;;;14.90;99.90;;;;;;5063977;28;20591;-75
2022/07/15 07:00:45;;;;;;;9.00;1.40;;;15.00;99.90;;;;;;5081559;28;20131;-76
2022/07/15 07:03:11;;;;;;;5.77;0.77;;;15.00;99.90;;;;;;5065774;28;20123;-75
2022/07/15 07:05:39;;;;;;;4.57;0.60;;;15.20;99.90;;;;;;5056032;28;20410;-73
2022/07/15 07:08:05;;;;;;;6.23;1.33;;;15.30;99.90;;;;;;5069893;28;20043;-74
2022/07/15 07:10:31;;;;;;;6.97;0.93;;;15.40;99.90;;;;;;5083833;28;20036;-74
2022/07/15 07:12:57;;;;;;;6.03;1.00;;;15.50;99.90;;;;;;5065746;28;20131;-75
2022/07/15 07:15:24;;;;;;;3.73;0.90;;;15.50;99.90;;;;;;5088241;28;20131;-74
2022/07/15 07:17:51;;;;;;;3.67;0.80;;;15.60;99.90;;;;;;5084177;28;20131;-76
2022/07/15 07:20:17;;;;;;;4.33;0.90;;;15.70;99.90;;;;;;5058855;28;20114;-74
2022/07/15 07:22:43;;;;;;;6.00;0.97;;;15.70;99.90;;;;;;5077985;28;20032;-74
2022/07/15 07:25:09;;;;;;;3.83;0.83;;;15.80;99.90;;;;;;5085764;28;20419;-75
2022/07/15 07:27:35;;;;;;;3.00;0.80;;;15.90;99.90;;;;;;5046821;28;20039;-76
2022/07/15 07:30:04;;;;;;;2.97;0.70;;;16.00;99.90;;;;;;5059375;28;20044;-77
2022/07/15 07:32:31;;;;;;;3.13;0.70;;;16.10;99.90;;;;;;5083489;28;20079;-75
2022/07/15 07:34:57;;;;;;;4.00;0.70;;;16.20;99.90;;;;;;5076636;28;20048;-76
2022/07/15 07:37:24;;;;;;;2.83;0.70;;;16.30;99.90;;;;;;5076783;28;20105;-75
2022/07/15 07:39:49;;;;;;;3.73;0.50;;;16.40;99.90;;;;;;5082116;28;20036;-74
2022/07/15 07:42:16;;;;;;;5.37;0.70;;;16.40;99.90;;;;;;5081201;28;20048;-75
2022/07/15 07:44:44;;;;;;;4.93;0.70;;;16.40;99.90;;;;;;5083990;28;20163;-75
2022/07/15 07:47:10;;;;;;;4.40;0.80;;;16.40;99.90;;;;;;5077895;28;20411;-75
2022/07/15 07:49:37;;;;;;;3.40;0.90;;;16.40;99.90;;;;;;5059971;28;20046;-73
2022/07/15 07:52:04;;;;;;;3.30;0.90;;;16.60;99.90;;;;;;5060328;28;20075;-77
2022/07/15 07:54:30;;;;;;;2.17;0.50;;;16.60;99.90;;;;;;5063754;28;20044;-74
2022/07/15 07:56:56;;;;;;;3.33;0.60;;;16.70;99.90;;;;;;5080679;28;20566;-75
2022/07/15 07:59:22;;;;;;;3.43;0.70;;;16.80;99.90;;;;;;5082065;28;20139;-74
2022/07/15 08:01:47;;;;;;;2.37;0.70;;;16.90;99.90;;;;;;5082046;28;20130;-76
2022/07/15 08:04:14;;;;;;;2.17;0.60;;;16.90;99.90;;;;;;5057209;28;20056;-79
2022/07/15 08:06:41;;;;;;;3.50;0.60;;;17.10;99.90;;;;;;5081232;28;20051;-75
2022/07/15 08:09:07;;;;;;;2.60;0.60;;;17.10;99.90;;;;;;5077384;28;20071;-74
2022/07/15 08:11:33;;;;;;;3.13;0.70;;;17.10;99.90;;;;;;5065511;28;20036;-76
2022/07/15 08:13:59;;;;;;;2.17;0.60;;;17.20;99.90;;;;;;5083832;28;20036;-74
2022/07/15 08:16:25;;;;;;;2.50;0.70;;;17.40;99.90;;;;;;5082571;28;20530;-77
2022/07/15 08:18:53;;;;;;;2.30;0.60;;;17.60;99.90;;;;;;5066990;28;20075;-75
2022/07/15 08:21:18;;;;;;;3.87;0.77;;;17.60;99.90;;;;;;5081630;28;20434;-75
2022/07/15 08:23:45;;;;;;;2.17;0.50;;;17.70;99.90;;;;;;5086928;28;20048;-75
2022/07/15 08:26:13;;;;;;;2.63;0.60;;;17.80;99.90;;;;;;5084464;28;20568;-74
2022/07/15 08:28:39;;;;;;;3.80;0.77;;;17.80;99.90;;;;;;5065353;28;20089;-77
2022/07/15 08:31:05;;;;;;;2.87;0.60;;;17.90;99.90;;;;;;5078918;28;20056;-75
2022/07/15 08:33:31;;;;;;;2.53;0.90;;;18.00;99.90;;;;;;5078835;28;20508;-75
2022/07/15 08:35:57;;;;;;;2.77;0.80;;;17.90;99.90;;;;;;5072500;28;20168;-77
2022/07/15 08:38:22;;;;;;;3.20;0.57;;;17.80;99.90;;;;;;5079375;28;20143;-77
2022/07/15 08:40:49;;;;;;;2.03;0.57;;;17.80;99.90;;;;;;5079251;28;20032;-77
2022/07/15 08:43:15;;;;;;;3.30;0.50;;;17.90;99.90;;;;;;5083667;28;20048;-75
2022/07/15 08:45:43;;;;;;;3.97;0.70;;;18.10;99.90;;;;;;5088579;28;20051;-78
2022/07/15 08:48:10;;;;;;;2.90;0.80;;;18.50;99.90;;;;;;5090631;28;20070;-77
2022/07/15 08:50:36;;;;;;;5.67;0.67;;;18.80;99.90;;;;;;5080421;28;20036;-76
2022/07/15 08:53:02;;;;;;;2.00;0.50;;;19.10;99.90;;;;;;5081716;28;20425;-76
2022/07/15 08:55:29;;;;;;;2.73;0.70;;;19.40;99.90;;;;;;5084865;28;20032;-76
2022/07/15 08:57:56;;;;;;;2.13;0.60;;;19.60;99.90;;;;;;5068257;28;20036;-75
2022/07/15 09:00:30;;;;;;;2.33;0.60;;;19.60;99.90;;;;;;5084546;28;20036;-75
2022/07/15 09:02:57;;;;;;;1.38;0.30;;;19.50;99.90;;;;;;5062878;28;20052;-77
2022/07/15 09:05:27;;;;;;;4.27;0.73;;;19.40;99.90;;;;;;5084890;28;20093;-75
2022/07/15 09:07:59;;;;;;;2.60;0.67;;;19.40;99.90;;;;;;5086650;28;20113;-74
2022/07/15 09:10:40;;;;;;;1.63;0.50;;;19.50;99.90;;;;;;5086148;28;20036;-74
2022/07/15 09:13:08;;;;;;;2.80;0.67;;;19.40;99.90;;;;;;5067799;28;20051;-75
2022/07/15 09:15:35;;;;;;;3.97;0.70;;;19.50;99.90;;;;;;5067759;28;20047;-74
2022/07/15 09:18:10;;;;;;;2.80;0.60;;;19.70;99.90;;;;;;5060229;28;20051;-74
2022/07/15 09:20:36;;;;;;;2.07;0.50;;;19.80;99.90;;;;;;5090573;28;20101;-74
2022/07/15 09:23:03;;;;;;;2.07;0.57;;;19.90;99.90;;;;;;5072234;28;20071;-74
2022/07/15 09:25:33;;;;;;;1.13;0.40;;;19.80;99.90;;;;;;5080524;28;20568;-73
2022/07/15 09:28:01;;;;;;;1.43;0.40;;;19.90;99.80;;;;;;5066796;28;20051;-73
2022/07/15 09:36:07;;;;;;;2.43;0.53;;;19.80;98.10;;;;;;5082962;28;21374;-75
2022/07/15 09:38:40;;;;;;;1.00;0.40;;;19.40;97.90;;;;;;5076547;28;20086;-72
2022/07/15 09:41:07;;;;;;;2.10;0.50;;;19.10;98.20;;;;;;5065567;28;20047;-74
2022/07/15 09:43:43;;;;;;;3.50;0.53;;;18.90;99.00;;;;;;5081368;28;20041;-73
2022/07/15 09:46:11;;;;;;;1.20;0.40;;;18.80;99.80;;;;;;5061876;28;20083;-73
2022/07/15 09:48:39;;;;;;;5.63;0.57;;;18.80;99.90;;;;;;5064188;28;20182;-74
2022/07/15 09:51:05;;;;;;;1.50;0.40;;;18.90;99.90;;;;;;5063113;28;20115;-72
2022/07/15 09:53:32;;;;;;;2.57;0.77;;;19.00;99.90;;;;;;5068450;28;20413;-73
2022/07/15 09:55:58;;;;;;;0.90;0.40;;;19.20;99.90;;;;;;5086302;28;20119;-72
2022/07/15 09:58:25;;;;;;;1.50;0.50;;;19.30;99.90;;;;;;5082719;28;20063;-73
2022/07/15 10:00:52;;;;;;;3.10;0.60;;;19.40;99.90;;;;;;5074743;28;20047;-71
2022/07/15 10:03:22;;;;;;;0.70;0.40;;;19.50;99.90;;;;;;5070216;28;20036;-74
2022/07/15 10:05:53;;;;;;;2.50;0.50;;;19.70;99.80;;;;;;5072236;28;20569;-73
2022/07/15 10:08:19;;;;;;;3.60;0.53;;;20.00;99.40;;;;;;5070849;28;20132;-74
2022/07/15 10:10:45;;;;;;;1.23;0.50;;;20.30;99.10;;;;;;5055250;28;20043;-74
2022/07/15 10:13:30;;;;;;;1.07;0.40;;;20.60;98.70;;;;;;5085423;28;20068;-73
2022/07/15 10:16:10;;;;;;;1.33;0.40;;;20.70;97.60;;;;;;5065962;28;20043;-73
2022/07/15 10:18:48;;;;;;;1.97;0.70;;;20.90;98.00;;;;;;5083761;28;20039;-74
2022/07/15 10:21:26;;;;;;;1.63;0.60;;;21.00;98.00;;;;;;5066819;28;20048;-74
2022/07/15 10:24:18;;;;;;;3.17;0.63;;;21.10;98.40;;;;;;5066901;28;20040;-74
2022/07/15 10:26:55;;;;;;;3.03;0.60;;;21.20;97.40;;;;;;5072842;28;20044;-74
2022/07/15 10:29:22;;;;;;;1.40;0.63;;;21.20;97.80;;;;;;5065911;28;20042;-73
2022/07/15 10:31:57;;;;;;;3.40;0.53;;;21.10;97.80;;;;;;5064938;28;20048;-74
2022/07/15 10:34:29;;;;;;;4.23;0.60;;;21.20;97.10;;;;;;5064636;28;20044;-74
2022/07/15 10:37:07;;;;;;;4.00;0.60;;;21.10;96.50;;;;;;5062555;28;20044;-74
2022/07/15 10:39:55;;;;;;;1.50;0.50;;;21.00;96.50;;;;;;5066919;28;20047;-73
2022/07/15 10:42:21;;;;;;;2.10;0.57;;;20.70;96.60;;;;;;5083052;28;20048;-74
2022/07/15 10:45:06;;;;;;;1.27;0.60;;;20.50;97.20;;;;;;5061102;28;20074;-74
2022/07/15 10:47:33;;;;;;;1.63;0.60;;;20.40;97.60;;;;;;5058575;28;20033;-74
2022/07/15 10:50:00;;;;;;;2.13;0.60;;;20.30;98.20;;;;;;5056491;28;20039;-74
2022/07/15 10:52:28;;;;;;;1.70;0.30;;;20.10;98.50;;;;;;5057385;28;20127;-73
2022/07/15 10:55:06;;;;;;;1.37;0.40;;;20.00;98.50;;;;;;5091803;28;20040;-74
2022/07/15 10:57:53;;;;;;;2.83;0.50;;;19.90;98.30;;;;;;5059405;28;20044;-74
2022/07/15 11:00:27;;;;;;;2.20;0.50;;;19.80;99.00;;;;;;5072657;28;20044;-73
2022/07/15 11:03:05;;;;;;;2.23;0.40;;;19.70;99.00;;;;;;5083999;28;20047;-74
2022/07/15 11:05:33;;;;;;;1.53;0.47;;;19.70;98.50;;;;;;5070843;28;20051;-75
2022/07/15 11:07:59;;;;;;;2.17;0.47;;;19.60;98.40;;;;;;5071418;28;20048;-74
2022/07/15 11:10:25;;;;;;;2.03;0.47;;;19.70;98.20;;;;;;5086691;28;20039;-74
2022/07/15 11:12:59;;;;;;;2.27;0.50;;;20.00;98.60;;;;;;5086272;28;20047;-73
2022/07/15 11:15:25;;;;;;;2.50;0.53;;;20.70;99.00;;;;;;5085002;28;20086;-74
2022/07/15 11:17:55;;;;;;;0.83;0.30;;;21.00;98.50;;;;;;5084708;28;20071;-75
2022/07/15 11:20:23;;;;;;;1.90;0.50;;;21.10;97.60;;;;;;5083804;28;20043;-73
2022/07/15 11:22:52;;;;;;;2.33;0.47;;;20.90;97.10;;;;;;5066550;28;20077;-74
2022/07/15 11:25:18;;;;;;;2.10;0.63;;;20.80;97.00;;;;;;5049239;28;20060;-74
2022/07/15 11:28:00;;;;;;;1.57;0.50;;;20.70;96.70;;;;;;5081291;28;20496;-74
2022/07/15 11:30:27;;;;;;;1.53;0.50;;;20.50;96.90;;;;;;5065686;28;20067;-75
2022/07/15 11:32:58;;;;;;;2.77;0.40;;;20.50;97.50;;;;;;5076581;28;20137;-73
2022/07/15 11:35:25;;;;;;;3.47;0.53;;;20.50;97.10;;;;;;5063696;28;20048;-73
2022/07/15 11:37:59;;;;;;;2.57;0.50;;;20.60;96.90;;;;;;5061824;28;20058;-74
2022/07/15 11:45:58;;;;;;;1.57;0.40;;;20.90;96.00;;;;;;5076593;28;20048;-74
2022/07/15 11:48:24;;;;;;;3.53;0.60;;;21.30;95.00;;;;;;5077252;28;20040;-74
2022/07/15 11:50:51;;;;;;;1.83;0.50;;;21.60;94.50;;;;;;5076165;28;20467;-71
2022/07/15 11:53:19;;;;;;;2.17;0.40;;;22.00;94.20;;;;;;5074062;28;21436;-73
2022/07/15 11:55:50;;;;;;;3.43;0.80;;;22.60;94.40;;;;;;5075284;28;20036;-75
2022/07/15 11:58:24;;;;;;;2.43;0.57;;;23.10;94.60;;;;;;5079863;28;20044;-74
2022/07/15 12:00:50;;;;;;;3.67;0.80;;;23.10;94.00;;;;;;5072969;28;20040;-75
2022/07/15 12:03:15;;;;;;;2.50;0.60;;;23.00;93.60;;;;;;5089497;28;20051;-75
2022/07/15 12:05:41;;;;;;;2.10;0.50;;;22.90;93.20;;;;;;5088390;28;20054;-73
2022/07/15 12:08:07;;;;;;;1.97;0.60;;;22.70;93.40;;;;;;5068848;28;20046;-75
2022/07/15 12:10:36;;;;;;;1.30;0.47;;;22.50;93.40;;;;;;5069518;28;20512;-74
2022/07/15 12:13:02;;;;;;;1.23;0.60;;;22.30;93.40;;;;;;5085806;28;20558;-75
2022/07/15 12:15:28;;;;;;;3.57;0.53;;;22.40;93.70;;;;;;5082021;28;20051;-73
2022/07/15 12:17:55;;;;;;;2.38;0.70;;;22.50;93.20;;;;;;5087839;28;20043;-75
2022/07/15 12:20:21;;;;;;;1.85;0.52;;;22.20;92.80;;;;;;5087798;28;20044;-74
2022/07/15 12:23:07;;;;;;;3.13;0.70;;;21.90;93.70;;;;;;5084958;28;20412;-74
2022/07/15 12:25:34;;;;;;;1.60;0.60;;;21.90;93.60;;;;;;5066349;28;20457;-74
2022/07/15 12:28:00;;;;;;;3.05;0.60;;;21.90;94.00;;;;;;5070578;28;20151;-73
2022/07/15 12:30:34;;;;;;;3.10;0.60;;;22.00;93.40;;;;;;5068604;28;20036;-75
2022/07/15 12:33:14;;;;;;;2.42;0.40;;;21.70;92.70;;;;;;5069361;28;20469;-73
2022/07/15 12:35:39;;;;;;;2.63;0.50;;;21.50;93.50;;;;;;5080033;28;20128;-74
2022/07/15 12:38:05;;;;;;;5.53;0.87;;;21.30;93.60;;;;;;5065675;28;20115;-74
2022/07/15 12:40:31;;;;;;;4.63;0.65;;;21.00;94.10;;;;;;5080690;28;20054;-74
2022/07/15 12:43:00;;;;;;;6.23;0.50;;;21.00;94.60;;;;;;5091450;28;20048;-74
2022/07/15 12:45:27;;;;;;;2.40;0.50;;;20.90;95.00;;;;;;5079894;28;20044;-74
2022/07/15 12:48:01;;;;;;;1.37;0.53;;;20.90;95.90;;;;;;5079261;28;20071;-72
2022/07/15 12:50:28;;;;;;;2.83;0.50;;;20.70;95.90;;;;;;5076141;28;20047;-74
2022/07/15 12:52:55;;;;;;;2.20;0.60;;;20.70;96.00;;;;;;5075575;28;20044;-73
2022/07/15 12:55:22;;;;;;;4.22;0.60;;;20.60;96.30;;;;;;5058044;28;20044;-76
2022/07/15 12:57:48;;;;;;;3.03;0.40;;;20.60;96.30;;;;;;5059850;28;20047;-74
2022/07/15 13:00:17;;;;;;;2.40;0.37;;;20.60;96.10;;;;;;5083841;28;20124;-74
2022/07/15 13:03:05;;;;;;;1.80;0.50;;;20.60;95.60;;;;;;5092112;28;20051;-75